createdAt,value
2023-03-26T00:01:40.443Z,100706.00
2023-03-26T00:04:10.144Z,100708.59
2023-03-26T00:06:41.703Z,100713.22
2023-03-26T00:09:13.298Z,100711.22
2023-03-26T00:11:42.472Z,100716.19
2023-03-26T00:14:14.001Z,100707.63
2023-03-26T00:16:43.102Z,100701.38
2023-03-26T00:19:13.923Z,100697.44
2023-03-26T00:21:42.397Z,100697.31
2023-03-26T00:24:15.287Z,100694.97
2023-03-26T00:26:44.757Z,100691.09
2023-03-26T00:29:13.990Z,100700.28
2023-03-26T00:31:46.201Z,100696.03
2023-03-26T00:34:18.259Z,100699.06
2023-03-26T00:36:47.793Z,100689.41
2023-03-26T00:39:17.832Z,100682.34
2023-03-26T00:41:46.275Z,100684.69
2023-03-26T00:44:14.913Z,100682.34
2023-03-26T00:46:43.293Z,100690.00
2023-03-26T00:49:14.876Z,100676.03
2023-03-26T00:51:44.579Z,100681.38
2023-03-26T00:54:12.845Z,100680.94
2023-03-26T00:56:41.338Z,100666.97
2023-03-26T00:59:10.284Z,100674.66
2023-03-26T01:01:40.643Z,100673.47
2023-03-26T01:04:30.870Z,100673.00
2023-03-26T01:07:05.081Z,100662.88
2023-03-26T01:09:37.284Z,100657.41
2023-03-26T01:12:10.996Z,100661.22
2023-03-26T01:14:40.134Z,100655.41
2023-03-26T01:17:12.450Z,100644.47
2023-03-26T01:19:49.259Z,100649.44
2023-03-26T01:22:22.298Z,100637.09
2023-03-26T01:24:56.264Z,100642.03
2023-03-26T01:27:35.903Z,100640.47
2023-03-26T01:30:12.305Z,100623.50
2023-03-26T01:33:00.812Z,100638.13
2023-03-26T01:35:45.872Z,100629.91
2023-03-26T01:38:24.696Z,100623.72
2023-03-26T01:41:00.564Z,100622.53
2023-03-26T01:43:34.253Z,100620.50
2023-03-26T01:46:06.735Z,100614.66
2023-03-26T01:48:38.965Z,100610.78
2023-03-26T01:51:09.403Z,100616.47
2023-03-26T01:53:43.276Z,100599.41
2023-03-26T01:56:20.106Z,100604.38
2023-03-26T01:59:08.689Z,100606.63
2023-03-26T02:01:46.194Z,100600.03
2023-03-26T02:04:23.803Z,100601.03
2023-03-26T02:07:02.093Z,100595.88
2023-03-26T02:09:35.042Z,100589.28
2023-03-26T02:12:05.861Z,100592.22
2023-03-26T02:14:34.357Z,100586.72
2023-03-26T02:17:02.569Z,100584.69
2023-03-26T02:19:30.779Z,100576.16
2023-03-26T02:21:59.904Z,100580.34
2023-03-26T02:24:28.170Z,100576.41
2023-03-26T02:26:58.088Z,100573.28
2023-03-26T02:29:27.882Z,100561.63
2023-03-26T02:31:56.207Z,100552.75
2023-03-26T02:34:24.442Z,100541.19
2023-03-26T02:36:52.680Z,100540.06
2023-03-26T02:39:20.968Z,100529.94
2023-03-26T02:41:49.204Z,100519.16
2023-03-26T02:44:17.429Z,100528.84
2023-03-26T02:46:46.958Z,100521.53
2023-03-26T02:49:15.838Z,100516.13
2023-03-26T02:51:44.038Z,100519.25
2023-03-26T02:54:12.255Z,100520.81
2023-03-26T02:56:40.597Z,100517.75
2023-03-26T02:59:08.809Z,100521.28
2023-03-26T03:01:42.850Z,100510.16
2023-03-26T03:04:13.075Z,100507.88
2023-03-26T03:06:41.504Z,100504.06
2023-03-26T03:09:09.905Z,100498.69
2023-03-26T03:11:39.517Z,100493.28
2023-03-26T03:14:08.646Z,100497.97
2023-03-26T03:16:36.953Z,100491.47
2023-03-26T03:19:06.199Z,100486.97
2023-03-26T03:21:35.896Z,100483.13
2023-03-26T03:24:04.122Z,100472.66
2023-03-26T03:26:32.341Z,100475.84
2023-03-26T03:29:00.727Z,100465.47
2023-03-26T03:31:29.375Z,100465.09
2023-03-26T03:33:57.646Z,100473.66
2023-03-26T03:36:27.807Z,100464.44
2023-03-26T03:39:02.218Z,100462.19
2023-03-26T03:41:30.676Z,100452.16
2023-03-26T03:43:59.840Z,100450.25
2023-03-26T03:46:28.520Z,100444.53
2023-03-26T03:48:56.725Z,100450.72
2023-03-26T03:51:25.082Z,100451.13
2023-03-26T03:53:53.666Z,100445.72
2023-03-26T03:56:24.227Z,100440.78
2023-03-26T03:58:52.447Z,100440.78
2023-03-26T04:01:22.827Z,100432.00
2023-03-26T04:03:51.287Z,100435.50
2023-03-26T04:06:20.066Z,100428.63
2023-03-26T04:08:48.587Z,100430.16
2023-03-26T04:11:16.898Z,100423.22
2023-03-26T04:13:46.493Z,100420.94
2023-03-26T04:16:14.954Z,100415.56
2023-03-26T04:18:45.242Z,100410.16
2023-03-26T04:21:15.974Z,100406.66
2023-03-26T04:23:44.255Z,100396.25
2023-03-26T04:26:17.152Z,100388.16
2023-03-26T04:28:50.759Z,100390.84
2023-03-26T04:31:24.130Z,100383.19
2023-03-26T04:33:55.217Z,100373.19
2023-03-26T04:36:28.498Z,100374.75
2023-03-26T04:38:58.434Z,100374.75
2023-03-26T04:41:27.217Z,100363.25
2023-03-26T04:43:57.073Z,100366.72
2023-03-26T04:46:25.572Z,100362.47
2023-03-26T04:48:55.600Z,100366.31
2023-03-26T04:51:28.452Z,100359.34
2023-03-26T04:53:59.048Z,100351.53
2023-03-26T04:56:41.096Z,100356.22
2023-03-26T04:59:15.596Z,100338.44
2023-03-26T05:01:45.894Z,100348.13
2023-03-26T05:04:14.554Z,100336.91
2023-03-26T05:06:43.465Z,100344.63
2023-03-26T05:09:11.821Z,100341.53
2023-03-26T05:11:40.042Z,100339.19
2023-03-26T05:14:08.258Z,100337.63
2023-03-26T05:16:39.459Z,100332.53
2023-03-26T05:19:08.595Z,100320.19
2023-03-26T05:21:36.970Z,100323.25
2023-03-26T05:24:06.294Z,100323.66
2023-03-26T05:26:36.804Z,100311.31
2023-03-26T05:29:05.728Z,100308.63
2023-03-26T05:31:33.956Z,100308.63
2023-03-26T05:34:03.816Z,100303.59
2023-03-26T05:36:32.057Z,100285.06
2023-03-26T05:39:00.278Z,100278.91
2023-03-26T05:41:28.481Z,100279.25
2023-03-26T05:43:56.808Z,100277.34
2023-03-26T05:46:25.047Z,100265.75
2023-03-26T05:48:53.923Z,100270.03
2023-03-26T05:51:24.362Z,100254.19
2023-03-26T05:53:52.750Z,100254.63
2023-03-26T05:56:21.161Z,100249.66
2023-03-26T05:58:50.914Z,100250.44
2023-03-26T06:01:20.945Z,100247.72
2023-03-26T06:03:51.517Z,100256.56
2023-03-26T06:06:22.836Z,100244.53
2023-03-26T06:09:01.041Z,100244.09
2023-03-26T06:11:32.597Z,100236.38
2023-03-26T06:14:01.035Z,100230.19
2023-03-26T06:16:29.368Z,100230.19
2023-03-26T06:18:57.981Z,100228.59
2023-03-26T06:21:28.480Z,100225.13
2023-03-26T06:23:57.349Z,100230.13
2023-03-26T06:26:25.861Z,100231.66
2023-03-26T06:28:54.098Z,100224.34
2023-03-26T06:31:22.346Z,100223.56
2023-03-26T06:33:50.628Z,100223.56
2023-03-26T06:36:18.843Z,100222.44
2023-03-26T06:38:48.455Z,100224.34
2023-03-26T06:41:17.016Z,100222.03
2023-03-26T06:43:45.346Z,100221.25
2023-03-26T06:46:14.015Z,100223.56
2023-03-26T06:48:43.306Z,100211.59
2023-03-26T06:51:12.225Z,100214.66
2023-03-26T06:53:40.437Z,100215.44
2023-03-26T06:56:11.423Z,100210.81
2023-03-26T06:58:39.627Z,100204.97
2023-03-26T07:01:08.516Z,100206.81
2023-03-26T07:03:36.752Z,100208.38
2023-03-26T07:06:05.501Z,100199.94
2023-03-26T07:08:33.705Z,100204.19
2023-03-26T07:11:01.907Z,100204.97
2023-03-26T07:13:31.458Z,100203.88
2023-03-26T07:15:59.707Z,100194.19
2023-03-26T07:18:27.896Z,100193.09
2023-03-26T07:20:57.450Z,100191.16
2023-03-26T07:23:26.595Z,100195.44
2023-03-26T07:25:56.010Z,100182.72
2023-03-26T07:28:33.204Z,100188.13
2023-03-26T07:31:12.317Z,100184.28
2023-03-26T07:33:47.828Z,100178.91
2023-03-26T07:36:26.112Z,100180.44
2023-03-26T07:39:11.499Z,100176.28
2023-03-26T07:41:47.396Z,100164.69
2023-03-26T07:44:46.916Z,100166.25
2023-03-26T07:47:27.445Z,100175.91
2023-03-26T07:49:57.927Z,100167.03
2023-03-26T07:52:27.575Z,100164.00
2023-03-26T07:54:56.958Z,100168.59
2023-03-26T07:57:39.548Z,100157.47
2023-03-26T08:00:19.247Z,100158.59
2023-03-26T08:03:18.140Z,100150.16
2023-03-26T08:05:54.382Z,100153.31
2023-03-26T08:08:35.951Z,100154.09
2023-03-26T08:11:19.092Z,100152.22
2023-03-26T08:14:04.030Z,100147.25
2023-03-26T08:16:43.012Z,100151.06
2023-03-26T08:19:28.622Z,100148.03
2023-03-26T08:22:03.920Z,100155.00
2023-03-26T08:24:40.492Z,100145.00
2023-03-26T08:27:18.749Z,100146.56
2023-03-26T08:29:54.392Z,100140.44
2023-03-26T08:32:24.858Z,100145.03
2023-03-26T08:34:53.162Z,100146.63
2023-03-26T08:37:21.443Z,100136.16
2023-03-26T08:39:49.642Z,100142.00
2023-03-26T08:43:01.519Z,100145.91
2023-03-26T08:46:03.376Z,100140.16
2023-03-26T08:49:01.740Z,100130.13
2023-03-26T08:52:24.547Z,100135.59
2023-03-26T08:55:41.575Z,100134.47
2023-03-26T08:59:01.515Z,100126.00
2023-03-26T09:02:33.348Z,100127.59
2023-03-26T09:05:43.809Z,100130.63
2023-03-26T09:09:19.261Z,100123.66
2023-03-26T09:12:33.442Z,100119.84
2023-03-26T09:15:39.204Z,100125.22
2023-03-26T09:18:57.631Z,100126.78
2023-03-26T09:22:21.254Z,100115.94
2023-03-26T09:25:31.171Z,100114.44
2023-03-26T09:28:32.395Z,100112.19
2023-03-26T09:31:39.335Z,100105.31
2023-03-26T09:34:29.915Z,100116.16
2023-03-26T09:37:14.298Z,100110.03
2023-03-26T09:40:01.552Z,100115.44
2023-03-26T09:42:44.775Z,100107.69
2023-03-26T09:45:50.862Z,100113.78
2023-03-26T09:48:59.505Z,100102.19
2023-03-26T09:51:55.486Z,100109.78
2023-03-26T09:55:08.209Z,100107.66
2023-03-26T09:58:17.644Z,100104.91
2023-03-26T10:00:52.515Z,100110.97
2023-03-26T10:03:50.139Z,100098.25
2023-03-26T10:06:51.765Z,100108.50
2023-03-26T10:09:37.095Z,100106.09
2023-03-26T10:12:21.924Z,100114.53
2023-03-26T10:15:05.296Z,100107.59
2023-03-26T10:17:53.655Z,100103.59
2023-03-26T10:20:53.114Z,100107.78
2023-03-26T10:23:54.385Z,100105.09
2023-03-26T10:27:08.904Z,100111.25
2023-03-26T10:30:13.676Z,100107.78
2023-03-26T10:32:56.403Z,100098.91
2023-03-26T10:35:41.135Z,100107.44
2023-03-26T10:38:19.977Z,100100.53
2023-03-26T10:41:04.441Z,100105.22
2023-03-26T10:44:07.864Z,100099.16
2023-03-26T10:47:01.121Z,100106.09
2023-03-26T10:50:03.797Z,100091.09
2023-03-26T10:52:39.232Z,100091.63
2023-03-26T10:55:15.957Z,100098.28
2023-03-26T10:57:50.406Z,100103.75
2023-03-26T11:00:25.205Z,100103.00
2023-03-26T11:03:34.411Z,100097.72
2023-03-26T11:06:16.297Z,100097.34
2023-03-26T11:08:53.993Z,100095.53
2023-03-26T11:11:29.480Z,100105.22
2023-03-26T11:14:07.031Z,100106.06
2023-03-26T11:16:50.494Z,100114.19
2023-03-26T11:19:29.016Z,100097.59
2023-03-26T11:22:07.768Z,100101.06
2023-03-26T11:25:07.254Z,100104.66
2023-03-26T11:27:53.032Z,100110.91
2023-03-26T11:30:36.280Z,100104.06
2023-03-26T11:33:09.318Z,100109.66
2023-03-26T11:35:43.488Z,100107.50
2023-03-26T11:38:20.357Z,100096.88
2023-03-26T11:40:51.926Z,100103.56
2023-03-26T11:43:27.090Z,100110.25
2023-03-26T11:45:55.566Z,100104.53
2023-03-26T11:48:30.666Z,100101.88
2023-03-26T11:51:07.360Z,100116.53
2023-03-26T11:53:38.785Z,100106.94
2023-03-26T11:56:15.765Z,100112.78
2023-03-26T11:58:52.058Z,100118.28
2023-03-26T12:01:30.133Z,100115.94
2023-03-26T12:04:05.643Z,100116.03
2023-03-26T12:06:37.468Z,100115.66
2023-03-26T12:09:05.742Z,100121.50
2023-03-26T12:11:35.835Z,100116.50
2023-03-26T12:14:06.435Z,100121.16
2023-03-26T12:16:36.467Z,100118.53
2023-03-26T12:19:10.855Z,100116.22
2023-03-26T12:21:48.092Z,100119.00
2023-03-26T12:24:31.775Z,100114.00
2023-03-26T12:27:02.983Z,100119.47
2023-03-26T12:29:34.500Z,100116.75
2023-03-26T12:32:11.037Z,100113.22
2023-03-26T12:34:40.687Z,100115.53
2023-03-26T12:37:36.486Z,100119.63
2023-03-26T12:40:27.239Z,100128.81
2023-03-26T12:44:46.872Z,100124.13
2023-03-26T12:47:26.459Z,100120.66
2023-03-26T12:48:38.881Z,100125.28
2023-03-26T12:51:17.137Z,100121.03
2023-03-26T12:54:15.135Z,100124.50
2023-03-26T12:56:50.177Z,100132.25
2023-03-26T12:59:54.137Z,100115.66
2023-03-26T13:02:59.026Z,100124.19
2023-03-26T13:05:45.336Z,100132.34
2023-03-26T13:08:47.607Z,100131.59
2023-03-26T13:11:27.114Z,100127.78
2023-03-26T13:14:12.739Z,100131.59
2023-03-26T13:16:48.887Z,100133.91
2023-03-26T13:19:22.971Z,100136.19
2023-03-26T13:22:11.182Z,100138.47
2023-03-26T13:24:50.457Z,100139.97
2023-03-26T13:27:35.351Z,100136.41
2023-03-26T13:30:18.818Z,100139.81
2023-03-26T13:33:06.460Z,100143.66
2023-03-26T13:35:41.498Z,100147.84
2023-03-26T13:38:18.380Z,100137.44
2023-03-26T13:40:59.958Z,100152.13
2023-03-26T13:43:45.841Z,100139.81
2023-03-26T13:46:29.143Z,100147.59
2023-03-26T13:49:01.826Z,100149.59
2023-03-26T13:51:36.596Z,100147.72
2023-03-26T13:54:17.483Z,100153.53
2023-03-26T13:56:51.449Z,100154.38
2023-03-26T13:59:31.103Z,100153.22
2023-03-26T14:02:06.385Z,100154.81
2023-03-26T14:04:39.832Z,100164.03
2023-03-26T14:07:15.740Z,100155.50
2023-03-26T14:09:49.226Z,100163.22
2023-03-26T14:12:33.627Z,100167.06
2023-03-26T14:15:06.627Z,100175.56
2023-03-26T14:17:42.260Z,100166.31
2023-03-26T14:20:44.708Z,100187.16
2023-03-26T14:23:43.460Z,100182.53
2023-03-26T14:26:25.196Z,100176.44
2023-03-26T14:29:32.097Z,100190.34
2023-03-26T14:32:13.901Z,100188.78
2023-03-26T14:34:58.500Z,100194.19
2023-03-26T14:37:48.509Z,100196.13
2023-03-26T14:40:31.345Z,100202.31
2023-03-26T14:43:18.644Z,100204.56
2023-03-26T14:46:08.937Z,100211.13
2023-03-26T14:49:12.536Z,100216.53
2023-03-26T14:51:56.295Z,100220.78
2023-03-26T14:54:28.393Z,100226.19
2023-03-26T14:57:57.951Z,100231.25
2023-03-26T15:01:04.891Z,100237.44
2023-03-26T15:04:53.480Z,100241.66
2023-03-26T15:07:59.059Z,100249.72
2023-03-26T15:11:07.123Z,100253.16
2023-03-26T15:14:01.061Z,100250.41
2023-03-26T15:17:17.478Z,100260.78
2023-03-26T15:20:47.056Z,100264.63
2023-03-26T15:24:06.151Z,100266.91
2023-03-26T15:27:48.318Z,100271.09
2023-03-26T15:31:10.863Z,100274.19
2023-03-26T15:34:31.212Z,100291.53
2023-03-26T15:37:49.940Z,100284.88
2023-03-26T15:40:45.833Z,100296.34
2023-03-26T15:43:16.176Z,100301.69
2023-03-26T15:45:48.011Z,100296.94
2023-03-26T15:48:57.762Z,100312.66
2023-03-26T15:51:47.327Z,100322.22
2023-03-26T15:54:27.915Z,100325.59
2023-03-26T15:57:20.048Z,100325.06
2023-03-26T16:00:22.549Z,100324.63
2023-03-26T16:03:13.035Z,100338.53
2023-03-26T16:06:04.226Z,100353.50
2023-03-26T16:08:47.207Z,100349.56
2023-03-26T16:11:16.508Z,100351.06
2023-03-26T16:13:51.488Z,100364.56
2023-03-26T16:16:25.248Z,100366.50
2023-03-26T16:18:59.623Z,100370.66
2023-03-26T16:21:46.988Z,100382.97
2023-03-26T16:24:32.213Z,100392.50
2023-03-26T16:27:10.514Z,100387.44
2023-03-26T16:30:19.492Z,100406.22
2023-03-26T16:32:55.308Z,100405.03
2023-03-26T16:36:18.411Z,100406.16
2023-03-26T16:38:55.477Z,100409.53
2023-03-26T16:41:27.802Z,100418.34
2023-03-26T16:44:13.838Z,100427.13
2023-03-26T16:47:01.529Z,100438.16
2023-03-26T16:49:45.653Z,100445.81
2023-03-26T16:52:28.464Z,100435.81
2023-03-26T16:55:17.185Z,100449.50
2023-03-26T16:57:56.130Z,100453.41
2023-03-26T17:00:36.599Z,100459.41
2023-03-26T17:03:29.133Z,100466.19
2023-03-26T17:06:06.856Z,100468.25
2023-03-26T17:08:44.784Z,100487.41
2023-03-26T17:11:24.852Z,100493.47
2023-03-26T17:14:07.943Z,100496.06
2023-03-26T17:16:42.599Z,100502.94
2023-03-26T17:19:28.623Z,100515.53
2023-03-26T17:22:04.752Z,100515.00
2023-03-26T17:24:45.155Z,100522.31
2023-03-26T17:27:27.892Z,100536.91
2023-03-26T17:30:21.926Z,100547.22
2023-03-26T17:32:58.765Z,100549.13
2023-03-26T17:35:53.178Z,100559.50
2023-03-26T17:39:06.745Z,100560.28
2023-03-26T17:41:56.662Z,100572.19
2023-03-26T17:44:47.387Z,100579.81
2023-03-26T17:47:26.176Z,100581.19
2023-03-26T17:50:00.932Z,100593.84
2023-03-26T17:52:50.713Z,100591.06
2023-03-26T17:55:23.385Z,100607.91
2023-03-26T17:57:55.096Z,100614.31
2023-03-26T18:00:26.935Z,100613.06
2023-03-26T18:03:00.429Z,100630.34
2023-03-26T18:05:31.570Z,100619.16
2023-03-26T18:08:37.081Z,100631.38
2023-03-26T18:11:33.496Z,100645.19
2023-03-26T18:14:56.816Z,100646.56
2023-03-26T18:17:26.615Z,100658.78
2023-03-26T18:19:56.799Z,100661.81
2023-03-26T18:22:28.406Z,100671.81
2023-03-26T18:25:01.583Z,100682.25
2023-03-26T18:27:38.565Z,100679.56
2023-03-26T18:30:19.517Z,100687.16
2023-03-26T18:33:00.070Z,100696.38
2023-03-26T18:35:39.285Z,100693.22
2023-03-26T18:38:07.814Z,100697.41
2023-03-26T18:40:43.374Z,100706.91
2023-03-26T18:43:28.823Z,100707.59
2023-03-26T18:46:03.234Z,100706.00
2023-03-26T18:48:31.697Z,100715.91
2023-03-26T18:51:05.767Z,100724.63
2023-03-26T18:53:40.066Z,100728.09
2023-03-26T18:56:29.401Z,100731.91
2023-03-26T18:58:59.999Z,100747.63
2023-03-26T19:01:31.835Z,100745.25
2023-03-26T19:04:04.007Z,100750.97
2023-03-26T19:06:35.944Z,100755.47
2023-03-26T19:09:16.251Z,100762.25
2023-03-26T19:11:58.134Z,100769.44
2023-03-26T19:14:28.642Z,100768.66
2023-03-26T19:17:00.595Z,100782.78
2023-03-26T19:19:33.686Z,100789.63
2023-03-26T19:22:03.696Z,100791.84
2023-03-26T19:24:32.558Z,100793.28
2023-03-26T19:27:02.671Z,100801.25
2023-03-26T19:29:34.655Z,100803.00
2023-03-26T19:32:05.551Z,100805.25
2023-03-26T19:34:39.638Z,100806.66
2023-03-26T19:37:21.427Z,100823.13
2023-03-26T19:39:52.323Z,100830.47
2023-03-26T19:42:26.581Z,100829.66
2023-03-26T19:44:55.406Z,100842.19
2023-03-26T19:47:39.139Z,100851.22
2023-03-26T19:50:26.646Z,100863.78
2023-03-26T19:53:17.891Z,100872.81
2023-03-26T19:55:56.612Z,100872.97
2023-03-26T19:58:27.309Z,100871.59
2023-03-26T20:00:57.214Z,100874.47
2023-03-26T20:03:30.414Z,100885.44
2023-03-26T20:05:58.802Z,100887.16
2023-03-26T20:08:27.961Z,100894.78
2023-03-26T20:10:58.039Z,100888.47
2023-03-26T20:13:30.255Z,100901.44
2023-03-26T20:16:08.868Z,100905.41
2023-03-26T20:18:37.659Z,100914.13
2023-03-26T20:21:12.325Z,100917.91
2023-03-26T20:23:41.005Z,100917.78
2023-03-26T20:26:14.056Z,100923.00
2023-03-26T20:28:48.562Z,100932.16
2023-03-26T20:31:25.117Z,100933.59
2023-03-26T20:33:56.408Z,100944.22
2023-03-26T20:36:33.985Z,100948.63
2023-03-26T20:39:06.542Z,100952.41
2023-03-26T20:41:35.956Z,100960.63
2023-03-26T20:44:09.864Z,100963.31
2023-03-26T20:46:38.159Z,100968.25
2023-03-26T20:49:06.789Z,100972.06
2023-03-26T20:51:35.036Z,100970.47
2023-03-26T20:54:03.379Z,100987.72
2023-03-26T20:56:31.607Z,100990.22
2023-03-26T20:59:10.386Z,100989.25
2023-03-26T21:01:41.509Z,101009.19
2023-03-26T21:04:09.774Z,101014.41
2023-03-26T21:06:38.018Z,101016.59
2023-03-26T21:09:07.433Z,101024.19
2023-03-26T21:11:50.097Z,101007.78
2023-03-26T21:14:23.129Z,101030.81
2023-03-26T21:16:53.843Z,101036.03
2023-03-26T21:19:22.938Z,101036.66
2023-03-26T21:22:03.316Z,101043.47
2023-03-26T21:24:55.169Z,101042.47
2023-03-26T21:27:32.355Z,101059.22
2023-03-26T21:30:01.879Z,101061.44
2023-03-26T21:32:33.000Z,101062.84
2023-03-26T21:35:03.417Z,101068.03
2023-03-26T21:37:32.982Z,101079.41
2023-03-26T21:40:12.138Z,101078.47
2023-03-26T21:42:41.216Z,101079.09
2023-03-26T21:45:11.403Z,101091.84
2023-03-26T21:47:42.301Z,101092.78
2023-03-26T21:50:13.989Z,101096.69
2023-03-26T21:52:47.821Z,101110.22
2023-03-26T21:55:18.374Z,101109.78
2023-03-26T21:58:05.712Z,101114.66
2023-03-26T22:00:55.955Z,101134.03
2023-03-26T22:03:33.279Z,101136.06
2023-03-26T22:06:07.947Z,101140.16
2023-03-26T22:08:40.288Z,101144.56
2023-03-26T22:11:10.364Z,101151.34
2023-03-26T22:13:39.056Z,101157.78
2023-03-26T22:16:10.686Z,101172.59
2023-03-26T22:18:40.568Z,101165.94
2023-03-26T22:21:09.069Z,101173.78
2023-03-26T22:23:38.314Z,101171.75
2023-03-26T22:26:07.460Z,101185.75
2023-03-26T22:28:36.483Z,101187.16
2023-03-26T22:31:08.529Z,101197.91
2023-03-26T22:33:36.998Z,101191.25
2023-03-26T22:36:22.633Z,101199.09
2023-03-26T22:38:54.786Z,101200.97
2023-03-26T22:41:23.443Z,101200.53
2023-03-26T22:43:52.810Z,101214.22
2023-03-26T22:46:21.277Z,101221.16
2023-03-26T22:48:50.944Z,101212.63
2023-03-26T22:51:20.916Z,101229.81
2023-03-26T22:53:49.251Z,101235.50
2023-03-26T22:56:18.863Z,101229.59
2023-03-26T22:58:48.946Z,101246.78
2023-03-26T23:01:20.404Z,101249.78
2023-03-26T23:03:48.670Z,101246.63
2023-03-26T23:06:17.782Z,101256.03
2023-03-26T23:08:47.286Z,101258.22
2023-03-26T23:11:18.045Z,101272.25
2023-03-26T23:13:48.574Z,101274.13
2023-03-26T23:16:19.183Z,101276.31
2023-03-26T23:18:47.468Z,101284.97
2023-03-26T23:21:18.231Z,101289.81
2023-03-26T23:23:49.066Z,101291.69
2023-03-26T23:26:17.850Z,101303.03
2023-03-26T23:28:46.063Z,101301.44
2023-03-26T23:31:14.763Z,101292.41
2023-03-26T23:33:46.169Z,101308.81
2023-03-26T23:36:18.716Z,101316.31
2023-03-26T23:38:49.407Z,101312.06
2023-03-26T23:41:21.547Z,101316.63
2023-03-26T23:43:55.470Z,101321.78
2023-03-26T23:46:25.679Z,101328.50
2023-03-26T23:48:55.089Z,101333.38
2023-03-26T23:51:24.214Z,101336.34
2023-03-26T23:53:53.956Z,101353.50
2023-03-26T23:56:22.589Z,101345.00
2023-03-26T23:58:50.814Z,101346.38
